N444BC KASE-KDAL
Flight info
| Callsign | N444BC |
|---|---|
| Flight time | 1h 31m |
| Altitude | 45000 |
| Route | LINDZ1 LINDZ KEEPP CLIMN MROON HBU STNLI JFRYE5 |
| Aircraft | C750/M-SBDE3FGHRWXY/S |
Departure
| Time | 2026-04-09 20:27 |
|---|---|
| Airport | Aspen-Pitkin County Airport (Sardy Field) (KASE) |
Arrival
| Time | 2026-04-09 21:58 |
|---|---|
| Airport | Dallas Love Field (KDAL) |
| Time | Latitude | Longitude | Altitude | Speed | Heading |
|---|---|---|---|---|---|
| 2026-04-09 20:05 | 39.22247 | -106.86685 | 7817 ft | 0 kts | 68° |
| 2026-04-09 20:21 | 39.22251 | -106.86669 | 7817 ft | 4 kts | 73° |
| 2026-04-09 20:21 | 39.22247 | -106.86634 | 7817 ft | 3 kts | 160° |
| 2026-04-09 20:22 | 39.22203 | -106.86622 | 7817 ft | 6 kts | 163° |
| 2026-04-09 20:22 | 39.22174 | -106.86605 | 7817 ft | 3 kts | 161° |
| 2026-04-09 20:22 | 39.22159 | -106.86599 | 7817 ft | 1 kts | 160° |
| 2026-04-09 20:22 | 39.22153 | -106.86596 | 7817 ft | 2 kts | 160° |
| 2026-04-09 20:23 | 39.22131 | -106.86586 | 7815 ft | 5 kts | 160° |
| 2026-04-09 20:23 | 39.22086 | -106.86579 | 7817 ft | 8 kts | 196° |
| 2026-04-09 20:23 | 39.22041 | -106.86612 | 7816 ft | 7 kts | 198° |
| 2026-04-09 20:23 | 39.22000 | -106.86607 | 7817 ft | 5 kts | 164° |
| 2026-04-09 20:24 | 39.21953 | -106.86584 | 7815 ft | 11 kts | 157° |
| 2026-04-09 20:24 | 39.21863 | -106.86545 | 7815 ft | 17 kts | 164° |
| 2026-04-09 20:24 | 39.21730 | -106.86486 | 7818 ft | 22 kts | 161° |
| 2026-04-09 20:24 | 39.21595 | -106.86418 | 7816 ft | 19 kts | 158° |
| 2026-04-09 20:25 | 39.21477 | -106.86363 | 7817 ft | 17 kts | 160° |
| 2026-04-09 20:25 | 39.21385 | -106.86324 | 7818 ft | 12 kts | 159° |
| 2026-04-09 20:25 | 39.21314 | -106.86289 | 7815 ft | 10 kts | 159° |
| 2026-04-09 20:25 | 39.21253 | -106.86258 | 7817 ft | 9 kts | 158° |
| 2026-04-09 20:26 | 39.21191 | -106.86267 | 7816 ft | 10 kts | 220° |
| 2026-04-09 20:26 | 39.21176 | -106.86341 | 7817 ft | 6 kts | 301° |
| 2026-04-09 20:26 | 39.21200 | -106.86356 | 7816 ft | 7 kts | 340° |
| 2026-04-09 20:26 | 39.21559 | -106.86527 | 7820 ft | 108 kts | 340° |
| 2026-04-09 20:27 | 39.22480 | -106.86956 | 7905 ft | 159 kts | 341° |
| 2026-04-09 20:27 | 39.23586 | -106.87399 | 8667 ft | 172 kts | 348° |
| 2026-04-09 20:27 | 39.24801 | -106.87334 | 9469 ft | 174 kts | 1° |
| 2026-04-09 20:27 | 39.26001 | -106.87381 | 10091 ft | 175 kts | 339° |
| 2026-04-09 20:28 | 39.27065 | -106.88145 | 10354 ft | 181 kts | 309° |
| 2026-04-09 20:28 | 39.27478 | -106.89662 | 10954 ft | 189 kts | 264° |
| 2026-04-09 20:28 | 39.27217 | -106.91294 | 11605 ft | 182 kts | 259° |
| 2026-04-09 20:28 | 39.27109 | -106.92916 | 12448 ft | 183 kts | 271° |
| 2026-04-09 20:29 | 39.27205 | -106.93999 | 13028 ft | 184 kts | 277° |
| 2026-04-09 20:29 | 39.27457 | -106.95619 | 14070 ft | 184 kts | 279° |
| 2026-04-09 20:29 | 39.27722 | -106.97245 | 14805 ft | 186 kts | 279° |
| 2026-04-09 20:29 | 39.27980 | -106.98886 | 15379 ft | 187 kts | 278° |
| 2026-04-09 20:30 | 39.28560 | -107.00986 | 16330 ft | 196 kts | 302° |
| 2026-04-09 20:30 | 39.29173 | -107.01884 | 16847 ft | 198 kts | 308° |
| 2026-04-09 20:30 | 39.30105 | -107.03193 | 17640 ft | 198 kts | 307° |
| 2026-04-09 20:30 | 39.31018 | -107.04515 | 18341 ft | 204 kts | 306° |
| 2026-04-09 20:31 | 39.32027 | -107.05981 | 18715 ft | 232 kts | 308° |
| 2026-04-09 20:31 | 39.33173 | -107.07621 | 18919 ft | 259 kts | 308° |
| 2026-04-09 20:31 | 39.34444 | -107.09436 | 19137 ft | 285 kts | 309° |
| 2026-04-09 20:31 | 39.35832 | -107.11426 | 19329 ft | 311 kts | 309° |
| 2026-04-09 20:32 | 39.37338 | -107.13588 | 19444 ft | 337 kts | 309° |
| 2026-04-09 20:32 | 39.38967 | -107.15930 | 19450 ft | 363 kts | 309° |
| 2026-04-09 20:32 | 39.40599 | -107.18549 | 19441 ft | 384 kts | 299° |
| 2026-04-09 20:32 | 39.41380 | -107.21838 | 19969 ft | 384 kts | 274° |
| 2026-04-09 20:33 | 39.41089 | -107.25242 | 20726 ft | 384 kts | 252° |
| 2026-04-09 20:33 | 39.39730 | -107.28209 | 21365 ft | 391 kts | 229° |
| 2026-04-09 20:33 | 39.37482 | -107.30237 | 22027 ft | 400 kts | 206° |
| 2026-04-09 20:33 | 39.34732 | -107.30935 | 22667 ft | 413 kts | 183° |
| 2026-04-09 20:34 | 39.31892 | -107.30171 | 23281 ft | 426 kts | 161° |
| 2026-04-09 20:34 | 39.29306 | -107.28140 | 23456 ft | 448 kts | 144° |
| 2026-04-09 20:34 | 39.26978 | -107.25372 | 23616 ft | 463 kts | 137° |
| 2026-04-09 20:34 | 39.24735 | -107.22335 | 24082 ft | 467 kts | 136° |
| 2026-04-09 20:35 | 39.22284 | -107.19699 | 24404 ft | 465 kts | 151° |
| 2026-04-09 20:35 | 39.19415 | -107.17776 | 24873 ft | 463 kts | 160° |
| 2026-04-09 20:35 | 39.16371 | -107.16431 | 25267 ft | 463 kts | 168° |
| 2026-04-09 20:35 | 39.13207 | -107.15695 | 25683 ft | 463 kts | 175° |
| 2026-04-09 20:36 | 39.09993 | -107.15147 | 26188 ft | 466 kts | 175° |
| 2026-04-09 20:36 | 39.06779 | -107.14579 | 26667 ft | 469 kts | 175° |
| 2026-04-09 20:36 | 39.03526 | -107.14005 | 27117 ft | 472 kts | 176° |
| 2026-04-09 20:36 | 39.00261 | -107.13443 | 27629 ft | 475 kts | 176° |
| 2026-04-09 20:37 | 38.96979 | -107.12883 | 28080 ft | 478 kts | 176° |
| 2026-04-09 20:37 | 38.93674 | -107.12311 | 28562 ft | 481 kts | 176° |
| 2026-04-09 20:37 | 38.90391 | -107.11737 | 29036 ft | 484 kts | 176° |
| 2026-04-09 20:37 | 38.86999 | -107.11147 | 29494 ft | 487 kts | 176° |
| 2026-04-09 20:38 | 38.83664 | -107.10574 | 29927 ft | 490 kts | 176° |
| 2026-04-09 20:38 | 38.80286 | -107.09991 | 30264 ft | 481 kts | 176° |
| 2026-04-09 20:38 | 38.76998 | -107.09416 | 30495 ft | 475 kts | 176° |
| 2026-04-09 20:38 | 38.73688 | -107.08853 | 30720 ft | 483 kts | 176° |
| 2026-04-09 20:39 | 38.70324 | -107.08283 | 30969 ft | 490 kts | 176° |
| 2026-04-09 20:39 | 38.66918 | -107.07694 | 31210 ft | 497 kts | 176° |
| 2026-04-09 20:39 | 38.63504 | -107.07100 | 31470 ft | 504 kts | 176° |
| 2026-04-09 20:39 | 38.60003 | -107.06501 | 31724 ft | 510 kts | 176° |
| 2026-04-09 20:40 | 38.56468 | -107.05845 | 31972 ft | 516 kts | 173° |
| 2026-04-09 20:40 | 38.52969 | -107.04637 | 32229 ft | 525 kts | 165° |
| 2026-04-09 20:40 | 38.49575 | -107.02820 | 32471 ft | 534 kts | 157° |
| 2026-04-09 20:40 | 38.46348 | -107.00387 | 32717 ft | 543 kts | 149° |
| 2026-04-09 20:41 | 38.43373 | -106.97367 | 32966 ft | 551 kts | 141° |
| 2026-04-09 20:41 | 38.40723 | -106.93798 | 33223 ft | 559 kts | 132° |
| 2026-04-09 20:41 | 38.38465 | -106.89724 | 33580 ft | 563 kts | 124° |
| 2026-04-09 20:41 | 38.36441 | -106.85459 | 34039 ft | 560 kts | 123° |
| 2026-04-09 20:42 | 38.34422 | -106.81210 | 34333 ft | 560 kts | 123° |
| 2026-04-09 20:42 | 38.32400 | -106.76973 | 34590 ft | 559 kts | 123° |
| 2026-04-09 20:42 | 38.30382 | -106.72743 | 34843 ft | 559 kts | 123° |
| 2026-04-09 20:42 | 38.28393 | -106.68569 | 35120 ft | 558 kts | 123° |
| 2026-04-09 20:43 | 38.26379 | -106.64353 | 35442 ft | 557 kts | 123° |
| 2026-04-09 20:43 | 38.24364 | -106.60149 | 35708 ft | 556 kts | 123° |
| 2026-04-09 20:43 | 38.22349 | -106.55948 | 35972 ft | 556 kts | 123° |
| 2026-04-09 20:43 | 38.20339 | -106.51756 | 36231 ft | 555 kts | 123° |
| 2026-04-09 20:44 | 38.18330 | -106.47571 | 36463 ft | 554 kts | 123° |
| 2026-04-09 20:44 | 38.16318 | -106.43394 | 36705 ft | 554 kts | 123° |
| 2026-04-09 20:44 | 38.14309 | -106.39226 | 36962 ft | 553 kts | 123° |
| 2026-04-09 20:44 | 38.12300 | -106.35059 | 37228 ft | 552 kts | 123° |
| 2026-04-09 20:45 | 38.10293 | -106.30903 | 37536 ft | 550 kts | 123° |
| 2026-04-09 20:45 | 38.08292 | -106.26766 | 37773 ft | 550 kts | 124° |
| 2026-04-09 20:45 | 38.06284 | -106.22621 | 37960 ft | 549 kts | 124° |
| 2026-04-09 20:45 | 38.04310 | -106.18550 | 38170 ft | 549 kts | 124° |
| 2026-04-09 20:46 | 38.02309 | -106.14426 | 38367 ft | 548 kts | 124° |
| 2026-04-09 20:46 | 38.00309 | -106.10311 | 38519 ft | 548 kts | 124° |
| 2026-04-09 20:46 | 37.96294 | -106.02070 | 38739 ft | 550 kts | 124° |
| 2026-04-09 20:47 | 37.94283 | -105.97947 | 38869 ft | 550 kts | 124° |
| 2026-04-09 20:47 | 37.92270 | -105.93825 | 38945 ft | 550 kts | 124° |
| 2026-04-09 20:47 | 37.88251 | -105.85615 | 38977 ft | 549 kts | 124° |
| 2026-04-09 20:48 | 37.84222 | -105.77405 | 38978 ft | 549 kts | 124° |
| 2026-04-09 20:48 | 37.80183 | -105.69195 | 38980 ft | 549 kts | 124° |
| 2026-04-09 20:49 | 37.76142 | -105.61000 | 38986 ft | 549 kts | 124° |
| 2026-04-09 20:49 | 37.72096 | -105.52817 | 38982 ft | 549 kts | 124° |
| 2026-04-09 20:50 | 37.68047 | -105.44647 | 38978 ft | 548 kts | 125° |
| 2026-04-09 20:50 | 37.63987 | -105.36475 | 38958 ft | 549 kts | 124° |
| 2026-04-09 20:51 | 37.59923 | -105.28316 | 38990 ft | 548 kts | 125° |
| 2026-04-09 20:51 | 37.55837 | -105.20135 | 38959 ft | 551 kts | 125° |
| 2026-04-09 20:52 | 37.51747 | -105.11962 | 38959 ft | 552 kts | 125° |
| 2026-04-09 20:52 | 37.47656 | -105.03810 | 38932 ft | 551 kts | 125° |
| 2026-04-09 20:53 | 37.43554 | -104.95655 | 38935 ft | 552 kts | 125° |
| 2026-04-09 20:53 | 37.39441 | -104.87501 | 38909 ft | 552 kts | 126° |
| 2026-04-09 20:54 | 37.35325 | -104.79355 | 38910 ft | 553 kts | 126° |
| 2026-04-09 20:54 | 37.31196 | -104.71210 | 38915 ft | 552 kts | 126° |
| 2026-04-09 20:55 | 37.27065 | -104.63077 | 38884 ft | 552 kts | 126° |
| 2026-04-09 20:55 | 37.22931 | -104.54961 | 38897 ft | 551 kts | 126° |
| 2026-04-09 20:56 | 37.18820 | -104.46907 | 38880 ft | 552 kts | 126° |
| 2026-04-09 20:56 | 37.14676 | -104.38809 | 38883 ft | 551 kts | 126° |
| 2026-04-09 20:57 | 37.10520 | -104.30707 | 38883 ft | 551 kts | 126° |
| 2026-04-09 20:57 | 37.06371 | -104.22638 | 38875 ft | 550 kts | 126° |
| 2026-04-09 20:58 | 37.02232 | -104.14606 | 38886 ft | 547 kts | 126° |
| 2026-04-09 20:58 | 36.98095 | -104.06603 | 38891 ft | 548 kts | 126° |
| 2026-04-09 20:59 | 36.93982 | -103.98659 | 38896 ft | 548 kts | 126° |
| 2026-04-09 20:59 | 36.89835 | -103.90671 | 38898 ft | 548 kts | 126° |
| 2026-04-09 21:00 | 36.85691 | -103.82707 | 38908 ft | 545 kts | 126° |
| 2026-04-09 21:01 | 36.79490 | -103.70827 | 38899 ft | 544 kts | 126° |
| 2026-04-09 21:01 | 36.75345 | -103.62906 | 38891 ft | 544 kts | 126° |
| 2026-04-09 21:02 | 36.71201 | -103.55009 | 38894 ft | 544 kts | 126° |
| 2026-04-09 21:02 | 36.67056 | -103.47126 | 38886 ft | 543 kts | 126° |
| 2026-04-09 21:03 | 36.62933 | -103.39306 | 38885 ft | 543 kts | 126° |
| 2026-04-09 21:03 | 36.58784 | -103.31452 | 38886 ft | 543 kts | 126° |
| 2026-04-09 21:04 | 36.54624 | -103.23596 | 39011 ft | 543 kts | 126° |
| 2026-04-09 21:04 | 36.50460 | -103.15752 | 39032 ft | 543 kts | 126° |
| 2026-04-09 21:04 | 36.48380 | -103.11841 | 38881 ft | 543 kts | 127° |
| 2026-04-09 21:05 | 36.46300 | -103.07933 | 38885 ft | 542 kts | 127° |
| 2026-04-09 21:05 | 36.42129 | -103.00111 | 38880 ft | 543 kts | 127° |
| 2026-04-09 21:06 | 36.37958 | -102.92307 | 38879 ft | 543 kts | 127° |
| 2026-04-09 21:06 | 36.33779 | -102.84505 | 38879 ft | 543 kts | 127° |
| 2026-04-09 21:07 | 36.29623 | -102.76765 | 38883 ft | 542 kts | 127° |
| 2026-04-09 21:07 | 36.25433 | -102.68980 | 38926 ft | 543 kts | 127° |
| 2026-04-09 21:08 | 36.21240 | -102.61204 | 38960 ft | 543 kts | 127° |
| 2026-04-09 21:08 | 36.17035 | -102.53427 | 38986 ft | 543 kts | 127° |
| 2026-04-09 21:09 | 36.12828 | -102.45661 | 38994 ft | 543 kts | 127° |
| 2026-04-09 21:09 | 36.08611 | -102.37897 | 38984 ft | 544 kts | 127° |
| 2026-04-09 21:10 | 36.04386 | -102.30132 | 38962 ft | 544 kts | 127° |
| 2026-04-09 21:10 | 36.00182 | -102.22428 | 38936 ft | 544 kts | 127° |
| 2026-04-09 21:11 | 35.95950 | -102.14686 | 38899 ft | 544 kts | 127° |
| 2026-04-09 21:11 | 35.91711 | -102.06950 | 38904 ft | 544 kts | 128° |
| 2026-04-09 21:12 | 35.87468 | -101.99223 | 38906 ft | 544 kts | 128° |
| 2026-04-09 21:12 | 35.85345 | -101.95363 | 39012 ft | 544 kts | 128° |
| 2026-04-09 21:12 | 35.83218 | -101.91502 | 39013 ft | 544 kts | 128° |
| 2026-04-09 21:13 | 35.78964 | -101.83790 | 38988 ft | 545 kts | 128° |
| 2026-04-09 21:13 | 35.74701 | -101.76081 | 38963 ft | 544 kts | 128° |
| 2026-04-09 21:14 | 35.70434 | -101.68379 | 38971 ft | 544 kts | 128° |
| 2026-04-09 21:14 | 35.66178 | -101.60715 | 38992 ft | 542 kts | 128° |
| 2026-04-09 21:15 | 35.61910 | -101.53048 | 39008 ft | 543 kts | 128° |
| 2026-04-09 21:15 | 35.57640 | -101.45393 | 39009 ft | 542 kts | 128° |
| 2026-04-09 21:16 | 35.53389 | -101.37797 | 39001 ft | 543 kts | 128° |
| 2026-04-09 21:16 | 35.49107 | -101.30141 | 38991 ft | 542 kts | 128° |
| 2026-04-09 21:17 | 35.45543 | -101.23801 | 38997 ft | 543 kts | 128° |
| 2026-04-09 21:17 | 35.41247 | -101.16156 | 39008 ft | 543 kts | 128° |
| 2026-04-09 21:18 | 35.36953 | -101.08543 | 39004 ft | 543 kts | 128° |
| 2026-04-09 21:18 | 35.32653 | -101.00929 | 38999 ft | 543 kts | 128° |
| 2026-04-09 21:19 | 35.28347 | -100.93325 | 38981 ft | 543 kts | 128° |
| 2026-04-09 21:19 | 35.24042 | -100.85735 | 38984 ft | 541 kts | 128° |
| 2026-04-09 21:20 | 35.19740 | -100.78171 | 38988 ft | 542 kts | 128° |
| 2026-04-09 21:20 | 35.15458 | -100.70658 | 38991 ft | 542 kts | 128° |
| 2026-04-09 21:21 | 35.11150 | -100.63112 | 38991 ft | 541 kts | 128° |
| 2026-04-09 21:21 | 35.06830 | -100.55565 | 38995 ft | 542 kts | 128° |
| 2026-04-09 21:22 | 35.02505 | -100.48022 | 38997 ft | 541 kts | 128° |
| 2026-04-09 21:22 | 34.98178 | -100.40496 | 39002 ft | 542 kts | 128° |
| 2026-04-09 21:23 | 34.93849 | -100.32978 | 39002 ft | 542 kts | 128° |
| 2026-04-09 21:23 | 34.89518 | -100.25476 | 39006 ft | 541 kts | 128° |
| 2026-04-09 21:24 | 34.85180 | -100.17976 | 39004 ft | 543 kts | 128° |
| 2026-04-09 21:24 | 34.80821 | -100.10454 | 39014 ft | 542 kts | 128° |
| 2026-04-09 21:25 | 34.76465 | -100.02957 | 39007 ft | 542 kts | 128° |
| 2026-04-09 21:25 | 34.72109 | -99.95471 | 39018 ft | 542 kts | 128° |
| 2026-04-09 21:26 | 34.67744 | -99.87991 | 39016 ft | 542 kts | 128° |
| 2026-04-09 21:26 | 34.63379 | -99.80522 | 39016 ft | 544 kts | 128° |
| 2026-04-09 21:27 | 34.59024 | -99.73087 | 39020 ft | 542 kts | 128° |
| 2026-04-09 21:27 | 34.54646 | -99.65631 | 39022 ft | 542 kts | 128° |
| 2026-04-09 21:28 | 34.50267 | -99.58185 | 39023 ft | 542 kts | 128° |
| 2026-04-09 21:28 | 34.45882 | -99.50745 | 39027 ft | 542 kts | 128° |
| 2026-04-09 21:29 | 34.41492 | -99.43315 | 39024 ft | 543 kts | 129° |
| 2026-04-09 21:29 | 34.37530 | -99.35486 | 39025 ft | 546 kts | 122° |
| 2026-04-09 21:30 | 34.33810 | -99.27552 | 39049 ft | 545 kts | 123° |
| 2026-04-09 21:30 | 34.29968 | -99.19640 | 39056 ft | 545 kts | 122° |
| 2026-04-09 21:31 | 34.26200 | -99.11691 | 39069 ft | 545 kts | 123° |
| 2026-04-09 21:31 | 34.22364 | -99.03774 | 39063 ft | 546 kts | 123° |
| 2026-04-09 21:32 | 34.18546 | -98.95804 | 38583 ft | 552 kts | 123° |
| 2026-04-09 21:32 | 34.16645 | -98.91873 | 37838 ft | 547 kts | 123° |
| 2026-04-09 21:32 | 34.14726 | -98.87915 | 37113 ft | 545 kts | 123° |
| 2026-04-09 21:32 | 34.12817 | -98.83965 | 36399 ft | 545 kts | 123° |
| 2026-04-09 21:33 | 34.10909 | -98.80013 | 35692 ft | 545 kts | 123° |
| 2026-04-09 21:33 | 34.08992 | -98.76058 | 34989 ft | 546 kts | 123° |
| 2026-04-09 21:33 | 34.07072 | -98.72109 | 34274 ft | 546 kts | 123° |
| 2026-04-09 21:33 | 34.05149 | -98.68150 | 33526 ft | 547 kts | 123° |
| 2026-04-09 21:34 | 34.03223 | -98.64187 | 32814 ft | 549 kts | 122° |
| 2026-04-09 21:34 | 34.01284 | -98.60203 | 32092 ft | 550 kts | 122° |
| 2026-04-09 21:34 | 33.99344 | -98.56225 | 31367 ft | 552 kts | 122° |
| 2026-04-09 21:34 | 33.97393 | -98.52226 | 30638 ft | 554 kts | 122° |
| 2026-04-09 21:35 | 33.95436 | -98.48218 | 29864 ft | 555 kts | 122° |
| 2026-04-09 21:35 | 33.93495 | -98.44247 | 29133 ft | 551 kts | 122° |
| 2026-04-09 21:35 | 33.91620 | -98.40414 | 28408 ft | 527 kts | 122° |
| 2026-04-09 21:35 | 33.89744 | -98.36587 | 27706 ft | 534 kts | 122° |
| 2026-04-09 21:36 | 33.87842 | -98.32719 | 27012 ft | 537 kts | 122° |
| 2026-04-09 21:36 | 33.85975 | -98.28913 | 26319 ft | 518 kts | 122° |
| 2026-04-09 21:36 | 33.84160 | -98.25214 | 25646 ft | 513 kts | 122° |
| 2026-04-09 21:36 | 33.82348 | -98.21539 | 24963 ft | 509 kts | 122° |
| 2026-04-09 21:37 | 33.80550 | -98.17894 | 24314 ft | 505 kts | 122° |
| 2026-04-09 21:37 | 33.78760 | -98.14262 | 23647 ft | 503 kts | 122° |
| 2026-04-09 21:37 | 33.76987 | -98.10667 | 22941 ft | 496 kts | 122° |
| 2026-04-09 21:37 | 33.75227 | -98.07107 | 22290 ft | 494 kts | 122° |
| 2026-04-09 21:38 | 33.73491 | -98.03598 | 21656 ft | 486 kts | 122° |
| 2026-04-09 21:38 | 33.71768 | -98.00119 | 21016 ft | 480 kts | 122° |
| 2026-04-09 21:38 | 33.70062 | -97.96676 | 20384 ft | 481 kts | 122° |
| 2026-04-09 21:38 | 33.68359 | -97.93245 | 19753 ft | 473 kts | 122° |
| 2026-04-09 21:39 | 33.66677 | -97.89855 | 19131 ft | 468 kts | 122° |
| 2026-04-09 21:39 | 33.65025 | -97.86532 | 18532 ft | 471 kts | 122° |
| 2026-04-09 21:39 | 33.63359 | -97.83183 | 17876 ft | 464 kts | 122° |
| 2026-04-09 21:39 | 33.61715 | -97.79878 | 17265 ft | 458 kts | 123° |
| 2026-04-09 21:40 | 33.60092 | -97.76621 | 16664 ft | 452 kts | 123° |
| 2026-04-09 21:40 | 33.58487 | -97.73406 | 16081 ft | 444 kts | 123° |
| 2026-04-09 21:40 | 33.56913 | -97.70252 | 15499 ft | 437 kts | 122° |
| 2026-04-09 21:40 | 33.55355 | -97.67136 | 14920 ft | 432 kts | 122° |
| 2026-04-09 21:41 | 33.53815 | -97.64059 | 14361 ft | 428 kts | 123° |
| 2026-04-09 21:41 | 33.52324 | -97.61076 | 13791 ft | 400 kts | 124° |
| 2026-04-09 21:41 | 33.50956 | -97.58333 | 13271 ft | 366 kts | 123° |
| 2026-04-09 21:41 | 33.49698 | -97.55825 | 12809 ft | 338 kts | 123° |
| 2026-04-09 21:42 | 33.48524 | -97.53494 | 12380 ft | 315 kts | 123° |
| 2026-04-09 21:42 | 33.47425 | -97.51307 | 11978 ft | 301 kts | 123° |
| 2026-04-09 21:42 | 33.46372 | -97.49213 | 11598 ft | 295 kts | 123° |
| 2026-04-09 21:42 | 33.45354 | -97.47053 | 11183 ft | 294 kts | 117° |
| 2026-04-09 21:43 | 33.44990 | -97.44656 | 11111 ft | 293 kts | 96° |
| 2026-04-09 21:43 | 33.44894 | -97.42174 | 11171 ft | 300 kts | 96° |
| 2026-04-09 21:43 | 33.44805 | -97.39672 | 11172 ft | 301 kts | 95° |
| 2026-04-09 21:43 | 33.44714 | -97.37201 | 11169 ft | 301 kts | 96° |
| 2026-04-09 21:44 | 33.44618 | -97.34663 | 11166 ft | 300 kts | 96° |
| 2026-04-09 21:44 | 33.44523 | -97.32188 | 11174 ft | 302 kts | 95° |
| 2026-04-09 21:44 | 33.44429 | -97.29678 | 11167 ft | 301 kts | 95° |
| 2026-04-09 21:44 | 33.44334 | -97.27169 | 11171 ft | 302 kts | 96° |
| 2026-04-09 21:45 | 33.44237 | -97.24656 | 11169 ft | 303 kts | 96° |
| 2026-04-09 21:45 | 33.44140 | -97.22145 | 11167 ft | 301 kts | 96° |
| 2026-04-09 21:45 | 33.44043 | -97.19636 | 11168 ft | 302 kts | 95° |
| 2026-04-09 21:45 | 33.43945 | -97.17115 | 11173 ft | 302 kts | 95° |
| 2026-04-09 21:46 | 33.43847 | -97.14603 | 11168 ft | 302 kts | 96° |
| 2026-04-09 21:46 | 33.43748 | -97.12094 | 11168 ft | 302 kts | 96° |
| 2026-04-09 21:46 | 33.43649 | -97.09589 | 11165 ft | 302 kts | 96° |
| 2026-04-09 21:46 | 33.43549 | -97.07074 | 11165 ft | 303 kts | 96° |
| 2026-04-09 21:47 | 33.43449 | -97.04563 | 11164 ft | 302 kts | 95° |
| 2026-04-09 21:47 | 33.43347 | -97.02047 | 11161 ft | 301 kts | 96° |
| 2026-04-09 21:47 | 33.43246 | -96.99539 | 11159 ft | 302 kts | 96° |
| 2026-04-09 21:47 | 33.43144 | -96.97029 | 11162 ft | 303 kts | 96° |
| 2026-04-09 21:48 | 33.43042 | -96.94518 | 11164 ft | 302 kts | 96° |
| 2026-04-09 21:48 | 33.42858 | -96.92024 | 11124 ft | 299 kts | 105° |
| 2026-04-09 21:48 | 33.42033 | -96.89773 | 10949 ft | 294 kts | 122° |
| 2026-04-09 21:48 | 33.41028 | -96.87677 | 10678 ft | 295 kts | 123° |
| 2026-04-09 21:49 | 33.39886 | -96.85664 | 10294 ft | 290 kts | 136° |
| 2026-04-09 21:49 | 33.38245 | -96.84342 | 9959 ft | 280 kts | 159° |
| 2026-04-09 21:49 | 33.36365 | -96.83842 | 9636 ft | 277 kts | 179° |
| 2026-04-09 21:49 | 33.34472 | -96.84083 | 9347 ft | 271 kts | 191° |
| 2026-04-09 21:50 | 33.32614 | -96.84455 | 9043 ft | 270 kts | 190° |
| 2026-04-09 21:50 | 33.30762 | -96.84814 | 8719 ft | 270 kts | 189° |
| 2026-04-09 21:50 | 33.28910 | -96.85170 | 8406 ft | 268 kts | 189° |
| 2026-04-09 21:50 | 33.27070 | -96.85527 | 8090 ft | 265 kts | 189° |
| 2026-04-09 21:51 | 33.25250 | -96.85881 | 7786 ft | 266 kts | 189° |
| 2026-04-09 21:51 | 33.23419 | -96.86236 | 7478 ft | 266 kts | 188° |
| 2026-04-09 21:51 | 33.21604 | -96.86588 | 7171 ft | 263 kts | 188° |
| 2026-04-09 21:51 | 33.19800 | -96.86938 | 6869 ft | 262 kts | 188° |
| 2026-04-09 21:52 | 33.18007 | -96.87284 | 6566 ft | 262 kts | 188° |
| 2026-04-09 21:52 | 33.16214 | -96.87631 | 6240 ft | 259 kts | 188° |
| 2026-04-09 21:52 | 33.14447 | -96.87974 | 5944 ft | 258 kts | 187° |
| 2026-04-09 21:52 | 33.12674 | -96.88316 | 5641 ft | 257 kts | 187° |
| 2026-04-09 21:53 | 33.10932 | -96.88652 | 5351 ft | 257 kts | 187° |
| 2026-04-09 21:53 | 33.09175 | -96.88993 | 5058 ft | 254 kts | 187° |
| 2026-04-09 21:53 | 33.07424 | -96.89330 | 4751 ft | 255 kts | 187° |
| 2026-04-09 21:53 | 33.05669 | -96.89668 | 4449 ft | 254 kts | 187° |
| 2026-04-09 21:54 | 33.03977 | -96.89997 | 4170 ft | 238 kts | 187° |
| 2026-04-09 21:54 | 33.02389 | -96.90304 | 3902 ft | 224 kts | 186° |
| 2026-04-09 21:54 | 33.00883 | -96.90595 | 3633 ft | 214 kts | 187° |
| 2026-04-09 21:54 | 32.99428 | -96.90874 | 3394 ft | 211 kts | 186° |
| 2026-04-09 21:55 | 32.97985 | -96.91148 | 3157 ft | 209 kts | 186° |
| 2026-04-09 21:55 | 32.96526 | -96.91209 | 2910 ft | 209 kts | 178° |
| 2026-04-09 21:55 | 32.95082 | -96.91233 | 2666 ft | 207 kts | 178° |
| 2026-04-09 21:55 | 32.93650 | -96.91273 | 2437 ft | 203 kts | 179° |
| 2026-04-09 21:56 | 32.92267 | -96.91307 | 2215 ft | 195 kts | 178° |
| 2026-04-09 21:56 | 32.90977 | -96.91187 | 1962 ft | 179 kts | 163° |
| 2026-04-09 21:56 | 32.89925 | -96.90525 | 1780 ft | 166 kts | 141° |
| 2026-04-09 21:56 | 32.89129 | -96.89602 | 1571 ft | 153 kts | 135° |
| 2026-04-09 21:57 | 32.88406 | -96.88774 | 1371 ft | 133 kts | 139° |
| 2026-04-09 21:57 | 32.87780 | -96.88051 | 1189 ft | 121 kts | 138° |
| 2026-04-09 21:57 | 32.87194 | -96.87380 | 1005 ft | 115 kts | 141° |
| 2026-04-09 21:57 | 32.86604 | -96.86715 | 785 ft | 116 kts | 136° |
| 2026-04-09 21:58 | 32.86045 | -96.86043 | 636 ft | 113 kts | 137° |
| 2026-04-09 21:58 | 32.85498 | -96.85396 | 503 ft | 109 kts | 140° |
| 2026-04-09 21:58 | 32.85030 | -96.84858 | 488 ft | 68 kts | 136° |
| 2026-04-09 21:58 | 32.84820 | -96.84618 | 490 ft | 25 kts | 134° |
| 2026-04-09 21:59 | 32.84819 | -96.84521 | 486 ft | 12 kts | 36° |
| 2026-04-09 21:59 | 32.84888 | -96.84532 | 484 ft | 10 kts | 321° |
| 2026-04-09 21:59 | 32.84930 | -96.84581 | 484 ft | 8 kts | 317° |
| 2026-04-09 21:59 | 32.84978 | -96.84633 | 485 ft | 10 kts | 317° |
| 2026-04-09 22:00 | 32.85028 | -96.84688 | 485 ft | 9 kts | 316° |
| 2026-04-09 22:00 | 32.85070 | -96.84736 | 487 ft | 8 kts | 316° |
| 2026-04-09 22:00 | 32.85103 | -96.84775 | 488 ft | 6 kts | 316° |
| 2026-04-09 22:00 | 32.85131 | -96.84806 | 488 ft | 5 kts | 316° |
| 2026-04-09 22:01 | 32.85160 | -96.84839 | 479 ft | 8 kts | 316° |
| 2026-04-09 22:01 | 32.85211 | -96.84899 | 488 ft | 11 kts | 316° |
| 2026-04-09 22:01 | 32.85265 | -96.84961 | 489 ft | 10 kts | 316° |
| 2026-04-09 22:01 | 32.85320 | -96.85025 | 490 ft | 13 kts | 315° |
| 2026-04-09 22:02 | 32.85394 | -96.85117 | 488 ft | 18 kts | 311° |
| 2026-04-09 22:02 | 32.85437 | -96.85147 | 486 ft | 7 kts | 53° |
| 2026-04-09 22:02 | 32.85484 | -96.85107 | 483 ft | 11 kts | 328° |
| 2026-04-09 22:02 | 32.85497 | -96.85120 | 484 ft | 0 kts | 319° |